1862 Tropical Storm NOT_NAMED (1862255N26286)


IBTrACS version v04r00. Visit IBTrACS website for data access.
Please direct all questions to the IBTrACS Q and A forum

Storm track - Intensity - Wind Radii - Intensity Data - Source Data - All data

Summary Information

Storm ID 1862255N26286
Start Sep 12 00Z
Landfall Sep 13 15Z, Sep 15 03Z
Max Intensity 60 kt (Sep 14 18Z)
End Sep 18 00Z
ATCF IDs
Track status Best track data.

Storm track plot

Map of storm track

Intensity plots

Map of storm track

Radial wind information

No radial wind information for this storm


Position and Intensity Table

BASIN ISO_TIME_________ NATURE LAT LON MLC WIND
degrees north degrees east kts
NA 1862-09-12 00:00:00 TS 25.80 -73.80 40
NA 03:00:00 TS 25.95 -74.35 40
NA 06:00:00 TS 26.10 -74.90 40
NA 09:00:00 TS 26.25 -75.45 42
NA 12:00:00 TS 26.40 -76.00 45
NA 15:00:00 TS 26.55 -76.55 45
NA 18:00:00 TS 26.70 -77.10 45
NA 21:00:00 TS 26.84 -77.65 47
NA 1862-09-13 00:00:00 TS 27.00 -78.20 50
NA 03:00:00 TS 27.20 -78.75 50
NA 06:00:00 TS 27.40 -79.30 50
NA 09:00:00 TS 27.57 -79.88 52
NA 12:00:00 TS 27.70 -80.40 55
NA 15:00:00 TS 27.81 -80.78 52
NA 18:00:00 TS 27.90 -81.10 50
NA 21:00:00 TS 27.95 -81.45 47
NA 1862-09-14 00:00:00 TS 28.00 -81.80 45
NA 03:00:00 TS 28.10 -82.15 47
NA 06:00:00 TS 28.20 -82.50 50
NA 09:00:00 TS 28.23 -82.84 52
NA 12:00:00 TS 28.30 -83.20 55
NA 15:00:00 TS 28.51 -83.59 57
NA 18:00:00 TS 28.80 -84.00 60
NA 21:00:00 TS 29.09 -84.41 60
NA 1862-09-15 00:00:00 TS 29.40 -84.80 60
NA 03:00:00 TS 29.71 -85.15 57
NA 06:00:00 TS 30.00 -85.50 55
NA 09:00:00 TS 30.27 -85.90 50
NA 12:00:00 TS 30.50 -86.30 45
NA 15:00:00 TS 30.70 -86.65 40
NA 18:00:00 TS 30.90 -87.00 35
NA 21:00:00 TS 31.15 -87.39 32
NA 1862-09-16 00:00:00 TS 31.40 -87.80 30
NA 03:00:00 TS 31.60 -88.20 30
NA 06:00:00 TS 31.80 -88.60 30
NA 09:00:00 TS 32.06 -89.02 30
NA 12:00:00 TS 32.30 -89.40 30
NA 15:00:00 TS 32.45 -89.67 30
NA 18:00:00 TS 32.60 -89.90 30
NA 21:00:00 TS 32.84 -90.18 30
NA 1862-09-17 00:00:00 TS 33.10 -90.40 30
NA 03:00:00 TS 33.35 -90.48 30
NA 06:00:00 TS 33.60 -90.50 30
NA 09:00:00 TS 33.85 -90.55 30
NA 12:00:00 TS 34.10 -90.60 30
NA 15:00:00 TS 34.34 -90.68 30
NA 18:00:00 TS 34.60 -90.70 30
NA 21:00:00 TS 34.89 -90.59 30
NA 1862-09-18 00:00:00 TS 35.20 -90.40 30

Source Information

Agency Information
USA
TOKYO
CMA
HKO
NEWDELHI
REUNION
BOM
NADI
WELLINGTON
DS824
TD9636
TD9635
NEUMANN
MLC

All available IBTrACS Data

SEASON BASIN SUBBASIN ISO_TIME_________ NATURE LAT LON DIST2LAND LANDFALL IFLAG USA SSHS MLC LAT MLC LON MLC CLASS MLC WIND STORM SPEED STORM DIR
Year degrees north degrees east km km 1 degrees north degrees east kts kts degrees
1862 NA NA 1862-09-12 00:00:00 TS 25.80 -73.80 418 375 _____________O -1 25.80 -73.80 TS 40 10 287
1862 NA NA 03:00:00 TS 25.95 -74.35 380 329 _____________P -1 25.95 -74.35 TS 40 10 287
1862 NA NA 06:00:00 TS 26.10 -74.90 329 287 _____________O -1 26.10 -74.90 TS 40 10 287
1862 NA NA 09:00:00 TS 26.25 -75.45 278 247 _____________P -1 26.25 -75.45 TS 42 10 287
1862 NA NA 12:00:00 TS 26.40 -76.00 247 216 _____________O -1 26.40 -76.00 TS 45 10 287
1862 NA NA 15:00:00 TS 26.55 -76.55 209 200 _____________P -1 26.55 -76.55 TS 45 10 287
1862 NA NA 18:00:00 TS 26.70 -77.10 200 191 _____________O -1 26.70 -77.10 TS 45 10 287
1862 NA NA 21:00:00 TS 26.84 -77.65 192 179 _____________P -1 26.84 -77.65 TS 47 10 287
1862 NA NA 1862-09-13 00:00:00 TS 27.00 -78.20 179 136 _____________O -1 27.00 -78.20 TS 50 10 290
1862 NA NA 03:00:00 TS 27.20 -78.75 136 90 _____________P -1 27.20 -78.75 TS 50 11 292
1862 NA NA 06:00:00 TS 27.40 -79.30 90 50 _____________O -1 27.40 -79.30 TS 50 11 290
1862 NA NA 09:00:00 TS 27.57 -79.88 45 9 _____________P -1 27.57 -79.88 TS 52 10 287
1862 NA NA 12:00:00 TS 27.70 -80.40 9 0 _____________O -1 27.70 -80.40 TS 55 8 287
1862 NA NA 15:00:00 TS 27.81 -80.78 0 0 _____________P -1 27.81 -80.78 TS 52 7 288
1862 NA NA 18:00:00 TS 27.90 -81.10 0 0 _____________O -1 27.90 -81.10 TS 50 6 283
1862 NA NA 21:00:00 TS 27.95 -81.45 0 0 _____________P -1 27.95 -81.45 TS 47 6 279
1862 NA NA 1862-09-14 00:00:00 TS 28.00 -81.80 0 0 _____________O -1 28.00 -81.80 TS 45 6 284
1862 NA NA 03:00:00 TS 28.10 -82.15 0 0 _____________P -1 28.10 -82.15 TS 47 6 288
1862 NA NA 06:00:00 TS 28.20 -82.50 0 0 _____________O -1 28.20 -82.50 TS 50 6 282
1862 NA GM 09:00:00 TS 28.23 -82.84 9 9 _____________P -1 28.23 -82.84 TS 52 6 279
1862 NA GM 12:00:00 TS 28.30 -83.20 45 45 _____________O -1 28.30 -83.20 TS 55 7 293
1862 NA GM 15:00:00 TS 28.51 -83.59 90 87 _____________P -1 28.51 -83.59 TS 57 9 305
1862 NA GM 18:00:00 TS 28.80 -84.00 97 82 _____________O -1 28.80 -84.00 TS 60 9 309
1862 NA GM 21:00:00 TS 29.09 -84.41 82 34 _____________P -1 29.09 -84.41 TS 60 9 311
1862 NA GM 1862-09-15 00:00:00 TS 29.40 -84.80 34 0 _____________O -1 29.40 -84.80 TS 60 9 314
1862 NA GM 03:00:00 TS 29.71 -85.15 0 0 _____________P -1 29.71 -85.15 TS 57 9 315
1862 NA GM 06:00:00 TS 30.00 -85.50 0 0 _____________O -1 30.00 -85.50 TS 55 9 311
1862 NA GM 09:00:00 TS 30.27 -85.90 0 0 _____________P -1 30.27 -85.90 TS 50 9 306
1862 NA GM 12:00:00 TS 30.50 -86.30 0 0 _____________O -1 30.50 -86.30 TS 45 8 304
1862 NA NA 15:00:00 TS 30.70 -86.65 0 0 _____________P -1 30.70 -86.65 TS 40 7 304
1862 NA NA 18:00:00 TS 30.90 -87.00 0 0 _____________O -1 30.90 -87.00 TS 35 8 305
1862 NA NA 21:00:00 TS 31.15 -87.39 0 0 _____________P -1 31.15 -87.39 TS 32 8 306
1862 NA NA 1862-09-16 00:00:00 TS 31.40 -87.80 0 0 _____________O -1 31.40 -87.80 TD 30 8 303
1862 NA NA 03:00:00 TS 31.60 -88.20 0 0 _____________P -1 31.60 -88.20 TD 30 8 300
1862 NA NA 06:00:00 TS 31.80 -88.60 0 0 _____________O -1 31.80 -88.60 TD 30 8 303
1862 NA NA 09:00:00 TS 32.06 -89.02 0 0 _____________P -1 32.06 -89.02 TD 30 8 306
1862 NA NA 12:00:00 TS 32.30 -89.40 0 0 _____________O -1 32.30 -89.40 TD 30 7 306
1862 NA NA 15:00:00 TS 32.45 -89.67 0 0 _____________P -1 32.45 -89.67 TD 30 5 305
1862 NA NA 18:00:00 TS 32.60 -89.90 0 0 _____________O -1 32.60 -89.90 TD 30 6 312
1862 NA NA 21:00:00 TS 32.84 -90.18 0 0 _____________P -1 32.84 -90.18 TD 30 7 320
1862 NA NA 1862-09-17 00:00:00 TS 33.10 -90.40 0 0 _____________O -1 33.10 -90.40 TD 30 6 334
1862 NA NA 03:00:00 TS 33.35 -90.48 0 0 _____________P -1 33.35 -90.48 TD 30 5 351
1862 NA NA 06:00:00 TS 33.60 -90.50 0 0 _____________O -1 33.60 -90.50 TD 30 5 353
1862 NA NA 09:00:00 TS 33.85 -90.55 0 0 _____________P -1 33.85 -90.55 TD 30 5 351
1862 NA NA 12:00:00 TS 34.10 -90.60 0 0 _____________O -1 34.10 -90.60 TD 30 5 348
1862 NA NA 15:00:00 TS 34.34 -90.68 0 0 _____________P -1 34.34 -90.68 TD 30 5 351
1862 NA NA 18:00:00 TS 34.60 -90.70 0 0 _____________O -1 34.60 -90.70 TD 30 6 8
1862 NA NA 21:00:00 TS 34.89 -90.59 0 0 _____________P -1 34.89 -90.59 TD 30 7 22
1862 NA NA 1862-09-18 00:00:00 TS 35.20 -90.40 0 _____________O -1 35.20 -90.40 TD 30 7 26